sensor_id;sensor_type;location;lat;lon;timestamp;P1;durP1;ratioP1;P2;durP2;ratioP2
56427;SDS011;42331;53.578;9.760;2023-02-18T00:02:27;28.20;;;4.90;;
56427;SDS011;42331;53.578;9.760;2023-02-18T00:04:58;33.83;;;3.60;;
56427;SDS011;42331;53.578;9.760;2023-02-18T00:07:32;31.33;;;3.92;;
56427;SDS011;42331;53.578;9.760;2023-02-18T00:10:09;25.75;;;3.08;;
56427;SDS011;42331;53.578;9.760;2023-02-18T00:12:42;30.25;;;3.83;;
56427;SDS011;42331;53.578;9.760;2023-02-18T00:15:13;35.03;;;4.13;;
56427;SDS011;42331;53.578;9.760;2023-02-18T00:17:44;24.42;;;3.72;;
56427;SDS011;42331;53.578;9.760;2023-02-18T00:20:14;29.30;;;3.30;;
56427;SDS011;42331;53.578;9.760;2023-02-18T00:22:45;26.08;;;3.80;;
56427;SDS011;42331;53.578;9.760;2023-02-18T00:25:16;32.65;;;3.85;;
56427;SDS011;42331;53.578;9.760;2023-02-18T00:27:46;25.95;;;3.50;;
56427;SDS011;42331;53.578;9.760;2023-02-18T00:30:17;19.83;;;2.97;;
56427;SDS011;42331;53.578;9.760;2023-02-18T00:32:48;26.02;;;3.17;;
56427;SDS011;42331;53.578;9.760;2023-02-18T00:35:19;27.67;;;3.85;;
56427;SDS011;42331;53.578;9.760;2023-02-18T00:37:50;30.40;;;4.35;;
56427;SDS011;42331;53.578;9.760;2023-02-18T00:40:22;33.83;;;4.55;;
56427;SDS011;42331;53.578;9.760;2023-02-18T00:42:52;25.95;;;3.10;;
56427;SDS011;42331;53.578;9.760;2023-02-18T00:45:23;31.05;;;4.15;;
56427;SDS011;42331;53.578;9.760;2023-02-18T00:47:54;28.30;;;3.53;;
56427;SDS011;42331;53.578;9.760;2023-02-18T00:50:24;27.70;;;3.72;;
56427;SDS011;42331;53.578;9.760;2023-02-18T00:52:55;34.10;;;3.78;;
56427;SDS011;42331;53.578;9.760;2023-02-18T00:55:26;27.95;;;3.45;;
56427;SDS011;42331;53.578;9.760;2023-02-18T00:57:56;27.42;;;3.42;;
56427;SDS011;42331;53.578;9.760;2023-02-18T01:00:30;29.38;;;4.45;;
56427;SDS011;42331;53.578;9.760;2023-02-18T01:03:10;20.50;;;3.33;;
56427;SDS011;42331;53.578;9.760;2023-02-18T01:05:41;26.95;;;4.43;;
56427;SDS011;42331;53.578;9.760;2023-02-18T01:08:12;24.33;;;3.33;;
56427;SDS011;42331;53.578;9.760;2023-02-18T01:10:44;30.45;;;4.13;;
56427;SDS011;42331;53.578;9.760;2023-02-18T01:13:16;25.10;;;2.88;;
56427;SDS011;42331;53.578;9.760;2023-02-18T01:15:46;29.80;;;3.03;;
56427;SDS011;42331;53.578;9.760;2023-02-18T01:18:17;26.17;;;3.33;;
56427;SDS011;42331;53.578;9.760;2023-02-18T01:20:48;21.50;;;3.53;;
56427;SDS011;42331;53.578;9.760;2023-02-18T01:23:19;32.20;;;3.78;;
56427;SDS011;42331;53.578;9.760;2023-02-18T01:25:50;26.83;;;2.67;;
56427;SDS011;42331;53.578;9.760;2023-02-18T01:28:21;33.33;;;3.95;;
56427;SDS011;42331;53.578;9.760;2023-02-18T01:30:54;22.38;;;3.38;;
56427;SDS011;42331;53.578;9.760;2023-02-18T01:33:24;35.45;;;5.57;;
56427;SDS011;42331;53.578;9.760;2023-02-18T01:35:55;29.23;;;4.00;;
56427;SDS011;42331;53.578;9.760;2023-02-18T01:38:26;31.40;;;4.38;;
56427;SDS011;42331;53.578;9.760;2023-02-18T01:43:29;26.92;;;3.40;;
56427;SDS011;42331;53.578;9.760;2023-02-18T01:51:11;20.45;;;2.70;;
56427;SDS011;42331;53.578;9.760;2023-02-18T01:54:06;27.23;;;3.25;;
56427;SDS011;42331;53.578;9.760;2023-02-18T01:56:41;30.10;;;2.97;;
56427;SDS011;42331;53.578;9.760;2023-02-18T01:59:33;28.42;;;3.38;;
56427;SDS011;42331;53.578;9.760;2023-02-18T02:02:10;18.00;;;2.65;;
56427;SDS011;42331;53.578;9.760;2023-02-18T02:04:43;26.83;;;3.53;;
56427;SDS011;42331;53.578;9.760;2023-02-18T02:07:14;27.97;;;3.43;;
56427;SDS011;42331;53.578;9.760;2023-02-18T02:09:47;15.35;;;2.08;;
56427;SDS011;42331;53.578;9.760;2023-02-18T02:15:22;23.40;;;2.80;;
56427;SDS011;42331;53.578;9.760;2023-02-18T02:23:32;27.98;;;3.33;;
56427;SDS011;42331;53.578;9.760;2023-02-18T02:36:59;21.15;;;3.10;;
56427;SDS011;42331;53.578;9.760;2023-02-18T02:40:03;24.45;;;2.75;;
56427;SDS011;42331;53.578;9.760;2023-02-18T02:45:50;20.08;;;2.40;;
56427;SDS011;42331;53.578;9.760;2023-02-18T02:51:09;19.30;;;2.50;;
56427;SDS011;42331;53.578;9.760;2023-02-18T02:53:53;26.40;;;3.15;;
56427;SDS011;42331;53.578;9.760;2023-02-18T02:56:24;26.95;;;3.08;;
56427;SDS011;42331;53.578;9.760;2023-02-18T02:58:59;21.95;;;2.90;;
56427;SDS011;42331;53.578;9.760;2023-02-18T03:12:39;23.58;;;2.85;;
56427;SDS011;42331;53.578;9.760;2023-02-18T03:18:32;17.42;;;3.03;;
56427;SDS011;42331;53.578;9.760;2023-02-18T03:21:32;28.10;;;3.03;;
56427;SDS011;42331;53.578;9.760;2023-02-18T03:27:27;24.15;;;2.92;;
56427;SDS011;42331;53.578;9.760;2023-02-18T03:33:02;21.20;;;2.10;;
56427;SDS011;42331;53.578;9.760;2023-02-18T03:35:36;18.50;;;2.95;;
56427;SDS011;42331;53.578;9.760;2023-02-18T03:38:13;20.40;;;2.83;;
56427;SDS011;42331;53.578;9.760;2023-02-18T03:40:49;15.32;;;1.80;;
56427;SDS011;42331;53.578;9.760;2023-02-18T03:43:21;10.48;;;2.05;;
56427;SDS011;42331;53.578;9.760;2023-02-18T03:45:52;18.35;;;2.50;;
56427;SDS011;42331;53.578;9.760;2023-02-18T03:48:24;16.52;;;2.30;;
56427;SDS011;42331;53.578;9.760;2023-02-18T03:50:55;18.17;;;2.60;;
56427;SDS011;42331;53.578;9.760;2023-02-18T03:53:25;19.63;;;2.10;;
56427;SDS011;42331;53.578;9.760;2023-02-18T03:55:56;17.13;;;1.95;;
56427;SDS011;42331;53.578;9.760;2023-02-18T03:58:27;16.83;;;2.22;;
56427;SDS011;42331;53.578;9.760;2023-02-18T04:00:57;21.23;;;2.60;;
56427;SDS011;42331;53.578;9.760;2023-02-18T04:03:28;17.35;;;2.20;;
56427;SDS011;42331;53.578;9.760;2023-02-18T04:05:59;15.38;;;2.20;;
56427;SDS011;42331;53.578;9.760;2023-02-18T04:08:30;21.10;;;2.70;;
56427;SDS011;42331;53.578;9.760;2023-02-18T04:11:00;12.63;;;1.90;;
56427;SDS011;42331;53.578;9.760;2023-02-18T04:13:31;15.43;;;2.53;;
56427;SDS011;42331;53.578;9.760;2023-02-18T04:16:02;12.10;;;1.55;;
56427;SDS011;42331;53.578;9.760;2023-02-18T04:18:33;20.15;;;2.67;;
56427;SDS011;42331;53.578;9.760;2023-02-18T04:21:04;21.30;;;2.28;;
56427;SDS011;42331;53.578;9.760;2023-02-18T04:23:34;14.50;;;2.00;;
56427;SDS011;42331;53.578;9.760;2023-02-18T04:26:05;19.27;;;2.83;;
56427;SDS011;42331;53.578;9.760;2023-02-18T04:28:36;20.88;;;2.35;;
56427;SDS011;42331;53.578;9.760;2023-02-18T04:31:07;14.38;;;2.75;;
56427;SDS011;42331;53.578;9.760;2023-02-18T04:33:37;20.65;;;2.30;;
56427;SDS011;42331;53.578;9.760;2023-02-18T04:36:08;16.67;;;2.20;;
56427;SDS011;42331;53.578;9.760;2023-02-18T04:38:39;12.77;;;1.92;;
56427;SDS011;42331;53.578;9.760;2023-02-18T04:41:12;13.55;;;1.80;;
56427;SDS011;42331;53.578;9.760;2023-02-18T04:43:42;13.18;;;1.55;;
56427;SDS011;42331;53.578;9.760;2023-02-18T04:46:13;16.67;;;1.98;;
56427;SDS011;42331;53.578;9.760;2023-02-18T04:48:44;15.68;;;3.33;;
56427;SDS011;42331;53.578;9.760;2023-02-18T04:51:15;13.68;;;1.92;;
56427;SDS011;42331;53.578;9.760;2023-02-18T04:53:45;15.38;;;1.90;;
56427;SDS011;42331;53.578;9.760;2023-02-18T04:56:16;18.35;;;2.08;;
56427;SDS011;42331;53.578;9.760;2023-02-18T04:58:47;12.85;;;1.60;;
56427;SDS011;42331;53.578;9.760;2023-02-18T05:01:18;14.60;;;1.88;;
56427;SDS011;42331;53.578;9.760;2023-02-18T05:03:48;14.07;;;2.28;;
56427;SDS011;42331;53.578;9.760;2023-02-18T05:06:19;14.18;;;2.22;;
56427;SDS011;42331;53.578;9.760;2023-02-18T05:08:49;8.63;;;1.02;;
56427;SDS011;42331;53.578;9.760;2023-02-18T05:11:20;16.17;;;2.20;;
56427;SDS011;42331;53.578;9.760;2023-02-18T05:13:51;13.52;;;1.88;;
56427;SDS011;42331;53.578;9.760;2023-02-18T05:16:21;17.10;;;2.38;;
56427;SDS011;42331;53.578;9.760;2023-02-18T05:18:52;14.50;;;2.35;;
56427;SDS011;42331;53.578;9.760;2023-02-18T05:21:23;18.90;;;2.47;;
56427;SDS011;42331;53.578;9.760;2023-02-18T05:23:54;11.70;;;1.58;;
56427;SDS011;42331;53.578;9.760;2023-02-18T05:26:24;19.23;;;2.05;;
56427;SDS011;42331;53.578;9.760;2023-02-18T05:28:55;15.18;;;2.20;;
56427;SDS011;42331;53.578;9.760;2023-02-18T05:31:26;18.95;;;2.63;;
56427;SDS011;42331;53.578;9.760;2023-02-18T05:33:57;14.27;;;2.00;;
56427;SDS011;42331;53.578;9.760;2023-02-18T05:36:27;20.75;;;2.13;;
56427;SDS011;42331;53.578;9.760;2023-02-18T05:38:58;15.05;;;1.65;;
56427;SDS011;42331;53.578;9.760;2023-02-18T05:41:29;19.83;;;2.38;;
56427;SDS011;42331;53.578;9.760;2023-02-18T05:43:59;16.40;;;2.08;;
56427;SDS011;42331;53.578;9.760;2023-02-18T05:46:49;15.50;;;1.80;;
56427;SDS011;42331;53.578;9.760;2023-02-18T05:49:19;14.27;;;2.00;;
56427;SDS011;42331;53.578;9.760;2023-02-18T05:51:50;9.60;;;1.08;;
56427;SDS011;42331;53.578;9.760;2023-02-18T05:54:21;11.10;;;1.50;;
56427;SDS011;42331;53.578;9.760;2023-02-18T05:56:52;17.75;;;2.03;;
56427;SDS011;42331;53.578;9.760;2023-02-18T05:59:23;9.05;;;1.23;;
56427;SDS011;42331;53.578;9.760;2023-02-18T06:01:54;7.93;;;1.50;;
56427;SDS011;42331;53.578;9.760;2023-02-18T06:04:25;9.25;;;1.65;;
56427;SDS011;42331;53.578;9.760;2023-02-18T06:06:56;20.83;;;2.17;;
56427;SDS011;42331;53.578;9.760;2023-02-18T06:09:27;10.25;;;1.75;;
56427;SDS011;42331;53.578;9.760;2023-02-18T06:11:57;11.02;;;1.60;;
56427;SDS011;42331;53.578;9.760;2023-02-18T06:14:28;11.07;;;0.85;;
56427;SDS011;42331;53.578;9.760;2023-02-18T06:16:59;6.82;;;1.15;;
56427;SDS011;42331;53.578;9.760;2023-02-18T06:19:29;11.05;;;1.45;;
56427;SDS011;42331;53.578;9.760;2023-02-18T06:22:00;15.18;;;1.67;;
56427;SDS011;42331;53.578;9.760;2023-02-18T06:24:31;19.83;;;1.88;;
56427;SDS011;42331;53.578;9.760;2023-02-18T06:27:02;12.23;;;2.35;;
56427;SDS011;42331;53.578;9.760;2023-02-18T06:29:33;14.25;;;2.00;;
56427;SDS011;42331;53.578;9.760;2023-02-18T06:32:05;16.38;;;1.88;;
56427;SDS011;42331;53.578;9.760;2023-02-18T06:34:36;15.45;;;1.88;;
56427;SDS011;42331;53.578;9.760;2023-02-18T06:37:07;20.77;;;2.55;;
56427;SDS011;42331;53.578;9.760;2023-02-18T06:39:38;12.25;;;1.38;;
56427;SDS011;42331;53.578;9.760;2023-02-18T06:42:08;10.38;;;1.48;;
56427;SDS011;42331;53.578;9.760;2023-02-18T06:44:39;18.60;;;3.10;;
56427;SDS011;42331;53.578;9.760;2023-02-18T06:47:10;15.80;;;2.10;;
56427;SDS011;42331;53.578;9.760;2023-02-18T06:49:41;13.60;;;2.50;;
56427;SDS011;42331;53.578;9.760;2023-02-18T06:52:11;13.40;;;1.45;;
56427;SDS011;42331;53.578;9.760;2023-02-18T06:54:43;18.10;;;2.17;;
56427;SDS011;42331;53.578;9.760;2023-02-18T06:57:14;17.88;;;2.10;;
56427;SDS011;42331;53.578;9.760;2023-02-18T06:59:45;15.80;;;2.45;;
56427;SDS011;42331;53.578;9.760;2023-02-18T07:02:15;13.63;;;2.20;;
56427;SDS011;42331;53.578;9.760;2023-02-18T07:04:46;10.07;;;2.17;;
56427;SDS011;42331;53.578;9.760;2023-02-18T07:07:17;9.68;;;1.55;;
56427;SDS011;42331;53.578;9.760;2023-02-18T07:09:47;13.73;;;2.55;;
56427;SDS011;42331;53.578;9.760;2023-02-18T07:12:18;13.80;;;2.17;;
56427;SDS011;42331;53.578;9.760;2023-02-18T07:14:49;12.50;;;1.67;;
56427;SDS011;42331;53.578;9.760;2023-02-18T07:17:20;16.30;;;2.53;;
56427;SDS011;42331;53.578;9.760;2023-02-18T07:19:50;10.02;;;2.10;;
56427;SDS011;42331;53.578;9.760;2023-02-18T07:22:21;16.55;;;2.05;;
56427;SDS011;42331;53.578;9.760;2023-02-18T07:24:52;11.52;;;1.63;;
56427;SDS011;42331;53.578;9.760;2023-02-18T07:27:23;19.85;;;3.28;;
56427;SDS011;42331;53.578;9.760;2023-02-18T07:29:54;17.85;;;2.35;;
56427;SDS011;42331;53.578;9.760;2023-02-18T07:32:25;18.70;;;3.05;;
56427;SDS011;42331;53.578;9.760;2023-02-18T07:34:56;16.45;;;4.43;;
56427;SDS011;42331;53.578;9.760;2023-02-18T07:37:26;19.13;;;3.60;;
56427;SDS011;42331;53.578;9.760;2023-02-18T07:39:57;13.48;;;3.13;;
56427;SDS011;42331;53.578;9.760;2023-02-18T07:42:28;18.75;;;3.80;;
56427;SDS011;42331;53.578;9.760;2023-02-18T07:44:58;14.65;;;3.20;;
56427;SDS011;42331;53.578;9.760;2023-02-18T07:47:29;14.52;;;2.95;;
56427;SDS011;42331;53.578;9.760;2023-02-18T07:50:00;15.77;;;2.10;;
56427;SDS011;42331;53.578;9.760;2023-02-18T07:52:30;10.52;;;1.98;;
56427;SDS011;42331;53.578;9.760;2023-02-18T07:55:01;16.20;;;1.85;;
56427;SDS011;42331;53.578;9.760;2023-02-18T07:57:32;13.52;;;2.00;;
56427;SDS011;42331;53.578;9.760;2023-02-18T08:00:22;12.98;;;2.15;;
56427;SDS011;42331;53.578;9.760;2023-02-18T08:02:53;14.88;;;2.45;;
56427;SDS011;42331;53.578;9.760;2023-02-18T08:05:24;14.77;;;2.10;;
56427;SDS011;42331;53.578;9.760;2023-02-18T08:07:55;14.57;;;2.08;;
56427;SDS011;42331;53.578;9.760;2023-02-18T08:10:25;15.75;;;1.80;;
56427;SDS011;42331;53.578;9.760;2023-02-18T08:12:56;14.45;;;1.70;;
56427;SDS011;42331;53.578;9.760;2023-02-18T08:15:27;16.70;;;3.10;;
56427;SDS011;42331;53.578;9.760;2023-02-18T08:17:57;17.27;;;3.95;;
56427;SDS011;42331;53.578;9.760;2023-02-18T08:20:28;20.33;;;4.18;;
56427;SDS011;42331;53.578;9.760;2023-02-18T08:22:59;11.32;;;3.42;;
56427;SDS011;42331;53.578;9.760;2023-02-18T08:25:30;11.15;;;3.50;;
56427;SDS011;42331;53.578;9.760;2023-02-18T08:28:01;16.63;;;4.30;;
56427;SDS011;42331;53.578;9.760;2023-02-18T08:30:32;16.27;;;4.53;;
56427;SDS011;42331;53.578;9.760;2023-02-18T08:33:03;11.50;;;2.78;;
56427;SDS011;42331;53.578;9.760;2023-02-18T08:35:33;14.65;;;3.28;;
56427;SDS011;42331;53.578;9.760;2023-02-18T08:38:04;12.85;;;2.90;;
56427;SDS011;42331;53.578;9.760;2023-02-18T08:40:35;13.00;;;2.33;;
56427;SDS011;42331;53.578;9.760;2023-02-18T08:43:05;20.50;;;2.97;;
56427;SDS011;42331;53.578;9.760;2023-02-18T08:45:37;11.07;;;2.60;;
56427;SDS011;42331;53.578;9.760;2023-02-18T08:50:40;10.03;;;2.63;;
56427;SDS011;42331;53.578;9.760;2023-02-18T08:53:10;15.82;;;2.50;;
56427;SDS011;42331;53.578;9.760;2023-02-18T08:55:41;17.60;;;3.28;;
56427;SDS011;42331;53.578;9.760;2023-02-18T08:58:13;9.93;;;2.80;;
56427;SDS011;42331;53.578;9.760;2023-02-18T09:00:43;17.08;;;2.92;;
56427;SDS011;42331;53.578;9.760;2023-02-18T09:03:15;18.55;;;2.95;;
56427;SDS011;42331;53.578;9.760;2023-02-18T09:05:46;13.90;;;3.70;;
56427;SDS011;42331;53.578;9.760;2023-02-18T09:08:16;20.45;;;4.72;;
56427;SDS011;42331;53.578;9.760;2023-02-18T09:10:48;20.63;;;4.55;;
56427;SDS011;42331;53.578;9.760;2023-02-18T09:13:19;15.38;;;4.22;;
56427;SDS011;42331;53.578;9.760;2023-02-18T09:15:57;13.30;;;4.30;;
56427;SDS011;42331;53.578;9.760;2023-02-18T09:18:29;12.27;;;4.10;;
56427;SDS011;42331;53.578;9.760;2023-02-18T09:21:02;10.48;;;3.70;;
56427;SDS011;42331;53.578;9.760;2023-02-18T09:23:35;11.88;;;3.78;;
56427;SDS011;42331;53.578;9.760;2023-02-18T09:26:07;12.45;;;4.85;;
56427;SDS011;42331;53.578;9.760;2023-02-18T09:28:39;11.52;;;4.43;;
56427;SDS011;42331;53.578;9.760;2023-02-18T09:31:14;11.98;;;4.15;;
56427;SDS011;42331;53.578;9.760;2023-02-18T09:33:48;18.05;;;5.10;;
56427;SDS011;42331;53.578;9.760;2023-02-18T09:36:21;14.60;;;5.10;;
56427;SDS011;42331;53.578;9.760;2023-02-18T09:38:52;13.70;;;4.93;;
56427;SDS011;42331;53.578;9.760;2023-02-18T09:46:54;15.75;;;5.82;;
56427;SDS011;42331;53.578;9.760;2023-02-18T09:49:39;15.93;;;6.72;;
56427;SDS011;42331;53.578;9.760;2023-02-18T09:52:17;8.98;;;5.03;;
56427;SDS011;42331;53.578;9.760;2023-02-18T09:55:00;11.88;;;4.72;;
56427;SDS011;42331;53.578;9.760;2023-02-18T09:57:44;10.93;;;4.40;;
56427;SDS011;42331;53.578;9.760;2023-02-18T10:00:21;9.77;;;4.50;;
56427;SDS011;42331;53.578;9.760;2023-02-18T10:03:04;8.15;;;4.00;;
56427;SDS011;42331;53.578;9.760;2023-02-18T10:05:51;8.60;;;4.35;;
56427;SDS011;42331;53.578;9.760;2023-02-18T10:11:13;11.13;;;4.65;;
56427;SDS011;42331;53.578;9.760;2023-02-18T10:13:50;7.10;;;4.47;;
56427;SDS011;42331;53.578;9.760;2023-02-18T10:16:23;6.53;;;4.30;;
56427;SDS011;42331;53.578;9.760;2023-02-18T10:19:04;7.68;;;4.00;;
56427;SDS011;42331;53.578;9.760;2023-02-18T10:21:42;7.82;;;4.90;;
56427;SDS011;42331;53.578;9.760;2023-02-18T10:26:56;8.57;;;5.22;;
56427;SDS011;42331;53.578;9.760;2023-02-18T10:29:28;7.05;;;3.97;;
56427;SDS011;42331;53.578;9.760;2023-02-18T10:34:53;8.13;;;4.20;;
56427;SDS011;42331;53.578;9.760;2023-02-18T10:42:58;8.70;;;4.97;;
56427;SDS011;42331;53.578;9.760;2023-02-18T10:48:46;8.57;;;5.32;;
56427;SDS011;42331;53.578;9.760;2023-02-18T10:51:31;10.45;;;6.28;;
56427;SDS011;42331;53.578;9.760;2023-02-18T10:54:03;12.38;;;6.43;;
56427;SDS011;42331;53.578;9.760;2023-02-18T10:56:49;11.10;;;6.05;;
56427;SDS011;42331;53.578;9.760;2023-02-18T10:59:22;9.45;;;6.10;;
56427;SDS011;42331;53.578;9.760;2023-02-18T11:02:01;9.93;;;6.68;;
56427;SDS011;42331;53.578;9.760;2023-02-18T11:04:43;11.02;;;5.93;;
56427;SDS011;42331;53.578;9.760;2023-02-18T11:07:15;11.15;;;6.57;;
56427;SDS011;42331;53.578;9.760;2023-02-18T11:10:14;10.88;;;6.70;;
56427;SDS011;42331;53.578;9.760;2023-02-18T11:12:49;11.40;;;6.88;;
56427;SDS011;42331;53.578;9.760;2023-02-18T11:15:25;11.40;;;5.50;;
56427;SDS011;42331;53.578;9.760;2023-02-18T11:18:10;9.45;;;4.35;;
56427;SDS011;42331;53.578;9.760;2023-02-18T11:20:59;9.02;;;2.97;;
56427;SDS011;42331;53.578;9.760;2023-02-18T11:23:35;5.30;;;1.95;;
56427;SDS011;42331;53.578;9.760;2023-02-18T11:26:23;4.60;;;1.70;;
56427;SDS011;42331;53.578;9.760;2023-02-18T11:29:13;2.13;;;1.05;;
56427;SDS011;42331;53.578;9.760;2023-02-18T11:31:52;3.53;;;1.13;;
56427;SDS011;42331;53.578;9.760;2023-02-18T11:34:26;2.33;;;1.00;;
56427;SDS011;42331;53.578;9.760;2023-02-18T11:37:19;2.45;;;0.93;;
56427;SDS011;42331;53.578;9.760;2023-02-18T11:39:52;3.47;;;0.80;;
56427;SDS011;42331;53.578;9.760;2023-02-18T11:42:24;2.55;;;1.00;;
56427;SDS011;42331;53.578;9.760;2023-02-18T11:44:57;1.63;;;0.98;;
56427;SDS011;42331;53.578;9.760;2023-02-18T11:47:36;2.10;;;0.93;;
56427;SDS011;42331;53.578;9.760;2023-02-18T11:52:39;1.80;;;0.70;;
56427;SDS011;42331;53.578;9.760;2023-02-18T11:55:16;1.50;;;0.70;;
56427;SDS011;42331;53.578;9.760;2023-02-18T11:57:56;4.82;;;0.93;;
56427;SDS011;42331;53.578;9.760;2023-02-18T12:03:30;1.75;;;0.90;;
56427;SDS011;42331;53.578;9.760;2023-02-18T12:06:51;1.08;;;0.52;;
56427;SDS011;42331;53.578;9.760;2023-02-18T12:09:05;1.50;;;0.50;;
56427;SDS011;42331;53.578;9.760;2023-02-18T12:11:39;0.90;;;0.45;;
56427;SDS011;42331;53.578;9.760;2023-02-18T12:14:17;1.55;;;0.60;;
56427;SDS011;42331;53.578;9.760;2023-02-18T12:17:01;2.00;;;0.65;;
56427;SDS011;42331;53.578;9.760;2023-02-18T12:23:02;6.05;;;1.40;;
56427;SDS011;42331;53.578;9.760;2023-02-18T12:25:39;6.40;;;1.25;;
56427;SDS011;42331;53.578;9.760;2023-02-18T12:34:21;14.50;;;3.30;;
56427;SDS011;42331;53.578;9.760;2023-02-18T12:42:55;18.67;;;3.10;;
56427;SDS011;42331;53.578;9.760;2023-02-18T12:54:12;17.17;;;2.78;;
56427;SDS011;42331;53.578;9.760;2023-02-18T13:08:41;29.15;;;4.45;;
56427;SDS011;42331;53.578;9.760;2023-02-18T13:17:09;27.27;;;3.85;;
56427;SDS011;42331;53.578;9.760;2023-02-18T13:19:49;26.55;;;3.40;;
56427;SDS011;42331;53.578;9.760;2023-02-18T13:22:25;25.55;;;4.30;;
56427;SDS011;42331;53.578;9.760;2023-02-18T13:24:59;24.15;;;3.63;;
56427;SDS011;42331;53.578;9.760;2023-02-18T13:27:32;28.02;;;3.88;;
56427;SDS011;42331;53.578;9.760;2023-02-18T13:36:04;19.23;;;3.50;;
56427;SDS011;42331;53.578;9.760;2023-02-18T13:39:02;29.35;;;3.65;;
56427;SDS011;42331;53.578;9.760;2023-02-18T13:41:38;24.85;;;3.97;;
56427;SDS011;42331;53.578;9.760;2023-02-18T13:46:54;21.88;;;3.35;;
56427;SDS011;42331;53.578;9.760;2023-02-18T13:49:33;32.88;;;4.15;;
56427;SDS011;42331;53.578;9.760;2023-02-18T13:52:14;29.58;;;4.10;;
56427;SDS011;42331;53.578;9.760;2023-02-18T13:54:49;33.17;;;4.40;;
56427;SDS011;42331;53.578;9.760;2023-02-18T13:57:21;28.55;;;4.32;;
56427;SDS011;42331;53.578;9.760;2023-02-18T13:59:56;26.50;;;3.80;;
56427;SDS011;42331;53.578;9.760;2023-02-18T14:02:34;35.42;;;4.22;;
56427;SDS011;42331;53.578;9.760;2023-02-18T14:07:37;35.20;;;4.85;;
56427;SDS011;42331;53.578;9.760;2023-02-18T14:20:43;8.50;;;2.80;;
56427;SDS011;42331;53.578;9.760;2023-02-18T14:31:05;15.77;;;3.58;;
56427;SDS011;42331;53.578;9.760;2023-02-18T14:36:31;4.93;;;2.47;;
56427;SDS011;42331;53.578;9.760;2023-02-18T14:45:39;4.15;;;2.47;;
56427;SDS011;42331;53.578;9.760;2023-02-18T14:50:57;4.53;;;2.80;;
56427;SDS011;42331;53.578;9.760;2023-02-18T14:53:30;4.60;;;2.78;;
56427;SDS011;42331;53.578;9.760;2023-02-18T14:56:04;4.38;;;2.72;;
56427;SDS011;42331;53.578;9.760;2023-02-18T14:58:38;4.05;;;3.30;;
56427;SDS011;42331;53.578;9.760;2023-02-18T15:04:01;4.07;;;2.65;;
56427;SDS011;42331;53.578;9.760;2023-02-18T15:06:33;4.50;;;2.80;;
56427;SDS011;42331;53.578;9.760;2023-02-18T15:09:17;3.65;;;2.45;;
56427;SDS011;42331;53.578;9.760;2023-02-18T15:11:59;3.17;;;2.30;;
56427;SDS011;42331;53.578;9.760;2023-02-18T15:14:36;3.50;;;2.45;;
56427;SDS011;42331;53.578;9.760;2023-02-18T15:17:28;4.57;;;2.17;;
56427;SDS011;42331;53.578;9.760;2023-02-18T15:20:02;4.15;;;2.60;;
56427;SDS011;42331;53.578;9.760;2023-02-18T15:22:35;2.85;;;2.13;;
56427;SDS011;42331;53.578;9.760;2023-02-18T15:25:06;5.75;;;2.58;;
56427;SDS011;42331;53.578;9.760;2023-02-18T15:27:43;5.07;;;2.20;;
56427;SDS011;42331;53.578;9.760;2023-02-18T15:32:59;2.67;;;1.38;;
56427;SDS011;42331;53.578;9.760;2023-02-18T15:35:31;2.90;;;1.80;;
56427;SDS011;42331;53.578;9.760;2023-02-18T15:38:02;3.05;;;1.58;;
56427;SDS011;42331;53.578;9.760;2023-02-18T15:40:34;2.55;;;1.40;;
56427;SDS011;42331;53.578;9.760;2023-02-18T15:43:07;4.13;;;2.10;;
56427;SDS011;42331;53.578;9.760;2023-02-18T15:45:39;1.77;;;1.40;;
56427;SDS011;42331;53.578;9.760;2023-02-18T15:48:20;3.22;;;1.55;;
56427;SDS011;42331;53.578;9.760;2023-02-18T15:50:57;2.75;;;1.27;;
56427;SDS011;42331;53.578;9.760;2023-02-18T15:53:33;2.67;;;1.73;;
56427;SDS011;42331;53.578;9.760;2023-02-18T15:56:09;4.03;;;2.22;;
56427;SDS011;42331;53.578;9.760;2023-02-18T15:58:45;2.72;;;1.63;;
56427;SDS011;42331;53.578;9.760;2023-02-18T16:01:28;4.00;;;1.70;;
56427;SDS011;42331;53.578;9.760;2023-02-18T16:03:59;3.30;;;1.42;;
56427;SDS011;42331;53.578;9.760;2023-02-18T16:06:30;2.97;;;1.10;;
56427;SDS011;42331;53.578;9.760;2023-02-18T16:09:21;3.10;;;1.40;;
56427;SDS011;42331;53.578;9.760;2023-02-18T16:11:56;2.55;;;1.10;;
56427;SDS011;42331;53.578;9.760;2023-02-18T16:14:45;3.25;;;1.20;;
56427;SDS011;42331;53.578;9.760;2023-02-18T16:17:19;3.83;;;1.70;;
56427;SDS011;42331;53.578;9.760;2023-02-18T16:19:52;2.92;;;1.40;;
56427;SDS011;42331;53.578;9.760;2023-02-18T16:22:31;2.42;;;1.23;;
56427;SDS011;42331;53.578;9.760;2023-02-18T16:27:49;6.75;;;3.40;;
56427;SDS011;42331;53.578;9.760;2023-02-18T16:30:33;4.88;;;2.67;;
56427;SDS011;42331;53.578;9.760;2023-02-18T16:33:04;8.20;;;4.25;;
56427;SDS011;42331;53.578;9.760;2023-02-18T16:35:35;5.25;;;1.50;;
56427;SDS011;42331;53.578;9.760;2023-02-18T16:38:06;1.98;;;1.10;;
56427;SDS011;42331;53.578;9.760;2023-02-18T16:40:37;5.50;;;2.88;;
56427;SDS011;42331;53.578;9.760;2023-02-18T16:43:10;3.20;;;1.83;;
56427;SDS011;42331;53.578;9.760;2023-02-18T16:45:47;4.05;;;2.00;;
56427;SDS011;42331;53.578;9.760;2023-02-18T16:48:27;2.58;;;1.60;;
56427;SDS011;42331;53.578;9.760;2023-02-18T16:51:00;2.80;;;1.55;;
56427;SDS011;42331;53.578;9.760;2023-02-18T16:53:33;2.70;;;1.75;;
56427;SDS011;42331;53.578;9.760;2023-02-18T16:56:05;2.50;;;1.60;;
56427;SDS011;42331;53.578;9.760;2023-02-18T16:58:42;5.10;;;1.95;;
56427;SDS011;42331;53.578;9.760;2023-02-18T17:01:33;3.75;;;2.05;;
56427;SDS011;42331;53.578;9.760;2023-02-18T17:04:14;3.85;;;2.40;;
56427;SDS011;42331;53.578;9.760;2023-02-18T17:06:46;5.50;;;2.90;;
56427;SDS011;42331;53.578;9.760;2023-02-18T17:09:18;3.88;;;2.65;;
56427;SDS011;42331;53.578;9.760;2023-02-18T17:11:52;3.65;;;2.63;;
56427;SDS011;42331;53.578;9.760;2023-02-18T17:14:25;4.35;;;2.50;;
56427;SDS011;42331;53.578;9.760;2023-02-18T17:16:56;4.30;;;2.55;;
56427;SDS011;42331;53.578;9.760;2023-02-18T17:19:27;3.30;;;2.30;;
56427;SDS011;42331;53.578;9.760;2023-02-18T17:21:57;4.15;;;2.28;;
56427;SDS011;42331;53.578;9.760;2023-02-18T17:24:28;3.50;;;2.30;;
56427;SDS011;42331;53.578;9.760;2023-02-18T17:26:59;3.20;;;2.42;;
56427;SDS011;42331;53.578;9.760;2023-02-18T17:29:29;4.07;;;2.95;;
56427;SDS011;42331;53.578;9.760;2023-02-18T17:32:00;3.90;;;2.70;;
56427;SDS011;42331;53.578;9.760;2023-02-18T17:34:34;3.72;;;2.85;;
56427;SDS011;42331;53.578;9.760;2023-02-18T17:37:11;4.97;;;3.95;;
56427;SDS011;42331;53.578;9.760;2023-02-18T17:39:42;6.53;;;4.05;;
56427;SDS011;42331;53.578;9.760;2023-02-18T17:42:13;5.00;;;3.58;;
56427;SDS011;42331;53.578;9.760;2023-02-18T17:44:44;5.43;;;3.47;;
56427;SDS011;42331;53.578;9.760;2023-02-18T17:47:15;5.00;;;3.75;;
56427;SDS011;42331;53.578;9.760;2023-02-18T17:49:45;5.57;;;3.80;;
56427;SDS011;42331;53.578;9.760;2023-02-18T17:52:27;5.45;;;3.90;;
56427;SDS011;42331;53.578;9.760;2023-02-18T17:54:59;5.88;;;4.00;;
56427;SDS011;42331;53.578;9.760;2023-02-18T17:57:31;5.30;;;4.17;;
56427;SDS011;42331;53.578;9.760;2023-02-18T18:00:01;5.38;;;4.10;;
56427;SDS011;42331;53.578;9.760;2023-02-18T18:02:33;6.43;;;4.70;;
56427;SDS011;42331;53.578;9.760;2023-02-18T18:05:03;7.95;;;5.05;;
56427;SDS011;42331;53.578;9.760;2023-02-18T18:07:34;6.78;;;4.93;;
56427;SDS011;42331;53.578;9.760;2023-02-18T18:10:05;7.32;;;5.70;;
56427;SDS011;42331;53.578;9.760;2023-02-18T18:12:38;8.15;;;6.18;;
56427;SDS011;42331;53.578;9.760;2023-02-18T18:17:56;8.77;;;6.57;;